Time;durP1;ratioP1;P1;durP2;ratioP2;P2;SDS_P1;SDS_P2;PMS_P1;PMS_P2;Temp;Humidity;BMP_temperature;BMP_pressure;BME280_temperature;BME280_humidity;BME280_pressure;Samples;Min_cycle;Max_cycle;Signal;HPM_P1;HPM_P2
2021/03/20 00:01:40;;;;;;;68.17;39.30;;;;;;;0.95;69.55;94361.23;1807939;79;22168;-56
2021/03/20 00:04:08;;;;;;;64.37;39.33;;;;;;;1.00;69.54;94362.77;1807743;78;21609;-56
2021/03/20 00:06:41;;;;;;;69.87;41.20;;;;;;;1.03;69.45;94370.88;1807791;78;21164;-56
2021/03/20 00:09:12;;;;;;;67.95;40.45;;;;;;;1.00;69.43;94370.89;1807869;79;21140;-56
2021/03/20 00:11:41;;;;;;;61.73;37.65;;;;;;;0.93;69.37;94370.95;1807813;79;21138;-56
2021/03/20 00:14:10;;;;;;;61.45;38.67;;;;;;;0.84;69.44;94374.08;1779397;79;21188;-56
2021/03/20 00:16:39;;;;;;;62.85;38.67;;;;;;;0.81;69.59;94374.84;1807783;79;21589;-56
2021/03/20 00:19:09;;;;;;;52.73;34.88;;;;;;;0.86;69.94;94378.52;1807777;79;21133;-57
2021/03/20 00:21:37;;;;;;;40.70;29.15;;;;;;;0.92;69.66;94374.22;1807745;79;21176;-56
2021/03/20 00:24:06;;;;;;;46.33;29.20;;;;;;;0.92;69.51;94366.70;1803537;79;21025;-56
2021/03/20 00:26:34;;;;;;;45.08;29.80;;;;;;;0.86;69.50;94371.75;1799859;79;21192;-56
2021/03/20 00:29:02;;;;;;;50.67;28.70;;;;;;;0.83;69.42;94371.19;1799765;79;21080;-55
2021/03/20 00:31:30;;;;;;;41.37;28.32;;;;;;;0.80;69.64;94366.54;1799901;78;21568;-56
2021/03/20 00:33:58;;;;;;;50.73;32.17;;;;;;;0.83;69.49;94363.06;1799691;79;21922;-55
2021/03/20 00:36:26;;;;;;;51.28;32.63;;;;;;;0.80;69.66;94361.72;1799858;78;21076;-56
2021/03/20 00:38:56;;;;;;;51.20;31.65;;;;;;;0.79;69.73;94362.29;1799173;79;22261;-55
2021/03/20 00:41:25;;;;;;;49.35;31.45;;;;;;;0.76;69.63;94352.25;1799757;79;21073;-56
2021/03/20 00:43:53;;;;;;;53.02;34.13;;;;;;;0.72;69.95;94357.48;1799787;79;21052;-57
2021/03/20 00:46:21;;;;;;;56.50;36.17;;;;;;;0.71;69.87;94352.67;1799750;79;21887;-56
2021/03/20 00:48:49;;;;;;;53.50;35.65;;;;;;;0.73;69.97;94358.46;1799838;79;21111;-55
2021/03/20 00:51:17;;;;;;;53.68;34.43;;;;;;;0.75;70.18;94355.38;1799800;79;21497;-56
2021/03/20 00:53:45;;;;;;;48.08;30.88;;;;;;;0.84;70.24;94359.19;1799743;78;21084;-56
2021/03/20 00:56:13;;;;;;;40.05;27.45;;;;;;;0.95;69.86;94362.59;1799821;79;21065;-56
2021/03/20 00:58:42;;;;;;;51.70;30.40;;;;;;;0.95;69.47;94366.66;1799811;79;21076;-56
2021/03/20 01:01:17;;;;;;;47.90;29.27;;;;;;;0.84;69.40;94357.84;1799740;78;21131;-55
2021/03/20 01:03:47;;;;;;;51.53;32.98;;;;;;;0.76;69.49;94353.61;1799785;79;21156;-55
2021/03/20 01:06:19;;;;;;;48.85;31.55;;;;;;;0.70;70.14;94361.96;1799754;78;21085;-56
2021/03/20 01:08:48;;;;;;;42.93;29.12;;;;;;;0.79;69.98;94355.52;1799780;79;21172;-56
2021/03/20 01:11:17;;;;;;;47.93;28.20;;;;;;;0.84;69.66;94352.42;1799934;78;21147;-55
2021/03/20 01:13:46;;;;;;;34.98;24.07;;;;;;;0.83;69.80;94358.22;1799977;79;21120;-54
2021/03/20 01:16:14;;;;;;;38.73;25.60;;;;;;;0.92;69.72;94359.33;1799964;78;21187;-57
2021/03/20 01:18:42;;;;;;;34.90;24.30;;;;;;;1.06;69.53;94357.12;1799912;79;21091;-55
2021/03/20 01:21:10;;;;;;;34.53;24.47;;;;;;;1.17;69.09;94359.94;1799977;79;21156;-56
2021/03/20 01:23:38;;;;;;;33.67;24.25;;;;;;;1.26;68.69;94358.94;1799776;79;21112;-56
2021/03/20 01:26:07;;;;;;;39.30;26.02;;;;;;;1.32;68.29;94361.40;1799975;78;21148;-55
2021/03/20 01:28:36;;;;;;;35.45;25.05;;;;;;;1.31;68.09;94362.56;1799962;79;21097;-56
2021/03/20 01:31:04;;;;;;;51.85;29.02;;;;;;;1.31;67.98;94365.27;1799904;79;21092;-55
2021/03/20 01:33:32;;;;;;;44.35;28.52;;;;;;;1.27;68.02;94364.53;1799879;78;21072;-56
2021/03/20 01:36:01;;;;;;;51.63;29.25;;;;;;;1.26;67.73;94368.98;1799952;79;21081;-55
2021/03/20 01:38:29;;;;;;;42.83;27.70;;;;;;;1.20;68.08;94367.30;1799901;78;21132;-56
2021/03/20 01:41:06;;;;;;;44.15;29.23;;;;;;;1.20;68.12;94367.30;1799983;79;21202;-56
2021/03/20 01:43:34;;;;;;;53.65;32.53;;;;;;;1.12;68.07;94360.37;1799911;78;21069;-56
2021/03/20 01:46:43;;;;;;;45.73;30.68;;;;;;;1.03;68.34;94370.88;1799968;79;21064;-56
2021/03/20 01:49:27;;;;;;;45.33;30.17;;;;;;;0.97;68.45;94365.67;1800062;79;21619;-56
2021/03/20 01:52:19;;;;;;;38.67;28.15;;;;;;;0.84;68.81;94366.53;1799988;79;21072;-55
2021/03/20 01:55:08;;;;;;;39.45;27.48;;;;;;;0.76;69.17;94372.55;1800112;79;21128;-56
2021/03/20 01:57:48;;;;;;;42.73;28.62;;;;;;;0.74;69.35;94374.13;1799925;79;21210;-55
2021/03/20 02:00:39;;;;;;;43.20;27.27;;;;;;;0.74;69.47;94377.59;1793987;79;21163;-56
2021/03/20 02:03:11;;;;;;;44.55;27.73;;;;;;;0.72;69.52;94373.16;1799886;79;21611;-57
2021/03/20 02:05:39;;;;;;;;;;;;;;;0.75;69.80;94372.37;1802204;79;21136;-56
2021/03/20 02:08:08;;;;;;;37.65;25.17;;;;;;;0.85;69.78;94374.27;1800055;79;22245;-55
2021/03/20 02:10:39;;;;;;;42.38;26.15;;;;;;;0.89;69.46;94372.88;1799873;79;21167;-57
2021/03/20 02:13:34;;;;;;;35.98;23.15;;;;;;;0.83;69.42;94384.72;1799919;79;21168;-56
2021/03/20 02:16:52;;;;;;;41.40;27.32;;;;;;;0.77;69.43;94379.52;1799848;79;21056;-55
2021/03/20 02:20:01;;;;;;;44.93;28.23;;;;;;;0.71;69.70;94382.45;1799921;79;21163;-56
2021/03/20 02:23:03;;;;;;;51.48;29.30;;;;;;;0.74;69.71;94373.53;1799921;79;21215;-56
2021/03/20 02:26:11;;;;;;;39.80;26.60;;;;;;;0.69;69.62;94379.37;1799885;78;21084;-56
2021/03/20 02:29:18;;;;;;;43.28;29.35;;;;;;;0.63;69.78;94376.86;1799672;79;21140;-56
2021/03/20 02:32:15;;;;;;;40.25;24.90;;;;;;;0.56;70.09;94382.31;1799898;78;21332;-55
2021/03/20 02:35:07;;;;;;;37.98;25.35;;;;;;;0.58;70.54;94384.64;1799856;79;21061;-55
2021/03/20 02:38:19;;;;;;;38.45;24.25;;;;;;;0.73;70.36;94381.47;1799877;79;21312;-56
2021/03/20 02:41:01;;;;;;;33.02;22.40;;;;;;;0.89;69.68;94378.29;1752447;81;21196;-57
2021/03/20 02:43:59;;;;;;;36.55;24.07;;;;;;;0.85;69.16;94375.63;1798778;78;21167;-56
2021/03/20 02:46:41;;;;;;;35.83;22.67;;;;;;;0.77;69.52;94384.17;1799887;79;21160;-56
2021/03/20 02:49:23;;;;;;;33.43;22.40;;;;;;;0.80;69.14;94382.02;1796100;79;21128;-57
2021/03/20 02:52:02;;;;;;;37.67;23.30;;;;;;;0.72;69.04;94389.41;1800027;79;21197;-56
2021/03/20 02:55:01;;;;;;;35.90;23.05;;;;;;;0.66;69.06;94383.43;1799864;79;21124;-57
2021/03/20 02:57:37;;;;;;;31.50;22.80;;;;;;;0.64;69.42;94382.48;1799906;79;21073;-56
2021/03/20 03:00:16;;;;;;;36.17;23.07;;;;;;;0.70;69.41;94390.38;1799926;79;21143;-56
2021/03/20 03:02:44;;;;;;;28.52;21.48;;;;;;;0.79;69.18;94392.66;1799959;79;21466;-56
2021/03/20 03:05:22;;;;;;;31.60;22.20;;;;;;;0.79;68.91;94393.42;1799886;78;21425;-56
2021/03/20 03:08:10;;;;;;;30.68;22.25;;;;;;;0.74;69.07;94387.67;1799932;78;21599;-55
2021/03/20 03:10:48;;;;;;;36.63;25.32;;;;;;;0.67;68.91;94393.88;1797882;79;21134;-57
2021/03/20 03:13:27;;;;;;;35.38;22.45;;;;;;;0.61;69.38;94400.08;1784664;79;21088;-56
2021/03/20 03:16:00;;;;;;;30.68;21.97;;;;;;;0.64;69.20;94395.23;1799903;79;21068;-56
2021/03/20 03:18:40;;;;;;;33.92;24.63;;;;;;;0.64;69.16;94394.67;1890051;76;22687;-56
2021/03/20 03:21:08;;;;;;;36.13;24.02;;;;;;;0.50;69.32;94396.63;1861023;77;20985;-56
2021/03/20 03:23:38;;;;;;;37.40;22.32;;;;;;;0.50;69.77;94392.00;1828241;77;21468;-56
2021/03/20 03:26:26;;;;;;;36.53;23.20;;;;;;;0.60;69.44;94395.23;1861018;77;21485;-56
2021/03/20 03:28:58;;;;;;;30.75;20.57;;;;;;;0.59;69.49;94397.75;1860912;77;21069;-55
2021/03/20 03:31:34;;;;;;;36.30;23.40;;;;;;;0.65;69.22;94398.91;1860958;77;21084;-56
2021/03/20 03:34:10;;;;;;;35.52;22.50;;;;;;;0.57;69.24;94402.79;1827212;78;21080;-56
2021/03/20 03:36:46;;;;;;;33.98;22.95;;;;;;;0.61;69.48;94403.55;1827201;78;21159;-58
2021/03/20 03:39:19;;;;;;;38.60;23.98;;;;;;;0.63;68.93;94403.92;1826856;78;21104;-57
2021/03/20 03:41:47;;;;;;;36.42;22.52;;;;;;;0.58;68.87;94406.28;1826947;78;21155;-57
2021/03/20 03:44:15;;;;;;;43.20;24.18;;;;;;;0.46;68.89;94410.19;1827180;78;21064;-56
2021/03/20 03:46:45;;;;;;;36.90;24.25;;;;;;;0.36;69.03;94412.33;1827203;78;21084;-56
2021/03/20 03:49:17;;;;;;;35.28;22.60;;;;;;;0.33;69.58;94413.11;1827168;78;21141;-57
2021/03/20 03:51:46;;;;;;;34.23;22.02;;;;;;;0.44;69.56;94415.79;1827270;78;21739;-56
2021/03/20 03:54:13;;;;;;;28.87;19.65;;;;;;;0.52;69.20;94418.09;1827247;78;21148;-56
2021/03/20 03:57:35;;;;;;;27.20;19.82;;;;;;;0.54;69.14;94417.11;1827144;78;21496;-56
2021/03/20 04:00:23;;;;;;;25.77;19.05;;;;;;;0.56;69.02;94420.19;1827270;78;21069;-56
2021/03/20 04:03:44;;;;;;;25.85;19.17;;;;;;;0.54;68.85;94427.93;1777853;78;21156;-56
2021/03/20 04:06:47;;;;;;;31.27;22.67;;;;;;;0.42;68.84;94416.77;1827124;78;21060;-56
2021/03/20 04:09:47;;;;;;;26.05;20.90;;;;;;;0.37;69.45;94419.28;1827330;78;21060;-56
2021/03/20 04:12:36;;;;;;;29.80;20.95;;;;;;;0.48;69.51;94424.09;1827055;78;21488;-57
2021/03/20 04:15:46;;;;;;;25.62;19.70;;;;;;;0.67;69.26;94428.27;1827206;78;21242;-56
2021/03/20 04:18:23;;;;;;;29.92;20.08;;;;;;;0.75;68.58;94426.50;1829393;78;21140;-56
2021/03/20 04:21:05;;;;;;;27.40;19.23;;;;;;;0.72;68.64;94426.51;1827421;78;21140;-56
2021/03/20 04:23:50;;;;;;;25.43;19.48;;;;;;;0.71;68.46;94426.32;1830677;78;21056;-56
2021/03/20 04:26:36;;;;;;;28.80;20.55;;;;;;;0.71;68.31;94426.32;1802961;78;21784;-55
2021/03/20 04:29:26;;;;;;;25.72;18.82;;;;;;;0.82;68.53;94427.06;1873618;76;22170;-56
2021/03/20 04:32:16;;;;;;;24.02;18.30;;;;;;;0.84;68.00;94426.88;1835459;78;21007;-55
2021/03/20 04:35:06;;;;;;;23.77;17.60;;;;;;;0.80;67.82;94427.45;1808544;79;21309;-56
2021/03/20 04:37:39;;;;;;;25.62;17.73;;;;;;;0.73;67.81;94430.19;1808467;79;20990;-56
2021/03/20 04:40:11;;;;;;;28.50;20.20;;;;;;;0.64;68.07;94444.73;1808547;79;21077;-56
2021/03/20 04:42:39;;;;;;;27.80;20.00;;;;;;;0.63;68.18;94447.22;1808772;79;20946;-56
2021/03/20 04:45:30;;;;;;;30.50;21.17;;;;;;;0.58;68.07;94440.86;1808546;79;21069;-55
2021/03/20 04:48:03;;;;;;;31.90;22.20;;;;;;;0.49;68.40;94441.87;1808458;79;21175;-56
2021/03/20 04:50:31;;;;;;;24.02;19.05;;;;;;;0.52;68.64;94447.84;1808582;79;21097;-56
2021/03/20 04:52:59;;;;;;;30.32;20.70;;;;;;;0.56;68.32;94450.55;1808583;79;21462;-56
2021/03/20 04:55:29;;;;;;;25.37;18.12;;;;;;;0.48;68.33;94445.73;1808559;79;21502;-57
2021/03/20 04:58:04;;;;;;;29.12;20.52;;;;;;;0.43;68.47;94458.29;1808488;79;21105;-56
2021/03/20 05:00:54;;;;;;;23.92;18.55;;;;;;;0.41;68.75;94460.62;1808496;78;21201;-56
2021/03/20 05:03:36;;;;;;;24.30;18.77;;;;;;;0.44;68.78;94459.83;1808451;79;21533;-56
2021/03/20 05:06:12;;;;;;;22.32;18.10;;;;;;;0.46;68.85;94462.95;1808499;79;21125;-57
2021/03/20 05:08:59;;;;;;;21.68;16.80;;;;;;;0.59;68.90;94470.82;1808093;79;21085;-56
2021/03/20 05:11:44;;;;;;;24.60;18.17;;;;;;;0.76;68.38;94470.00;1808535;79;20986;-56
2021/03/20 05:14:16;;;;;;;23.70;17.45;;;;;;;0.81;68.04;94469.59;1808610;79;22074;-56
2021/03/20 05:16:52;;;;;;;27.13;17.13;;;;;;;0.81;68.05;94477.72;1808774;79;21604;-59
2021/03/20 05:19:22;;;;;;;19.00;14.75;;;;;;;0.79;67.80;94480.05;1808439;79;21053;-56
2021/03/20 05:21:51;;;;;;;20.23;15.85;;;;;;;0.72;67.81;94482.78;1808452;78;21152;-56
2021/03/20 05:24:23;;;;;;;24.12;17.37;;;;;;;0.72;67.85;94485.48;1808492;79;21077;-56
2021/03/20 05:26:52;;;;;;;29.27;21.62;;;;;;;0.82;67.83;94482.56;1808487;79;21199;-55
2021/03/20 05:29:20;;;;;;;26.10;19.70;;;;;;;0.91;67.48;94491.81;1808328;78;21085;-55
2021/03/20 05:31:48;;;;;;;27.93;19.85;;;;;;;0.99;67.47;94494.67;1808367;78;21069;-56
2021/03/20 05:34:30;;;;;;;23.32;17.42;;;;;;;1.12;67.17;94489.02;1808425;79;21157;-56
2021/03/20 05:36:58;;;;;;;23.80;18.42;;;;;;;1.24;66.75;94491.88;1808885;79;21489;-57
2021/03/20 05:39:26;;;;;;;23.20;17.48;;;;;;;1.25;66.44;94500.97;1808149;78;21363;-55
2021/03/20 05:42:31;;;;;;;24.20;18.27;;;;;;;1.26;66.45;94499.81;1807851;79;21145;-56
2021/03/20 05:45:28;;;;;;;22.75;16.97;;;;;;;1.31;66.18;94508.88;1778775;79;21045;-55
2021/03/20 05:48:11;;;;;;;24.70;19.77;;;;;;;1.24;66.29;94505.42;1807967;79;21124;-55
2021/03/20 05:50:53;;;;;;;18.40;15.93;;;;;;;1.13;66.78;94509.52;1789864;79;21065;-56
2021/03/20 05:53:45;;;;;;;17.67;14.18;;;;;;;1.16;66.91;94521.52;1801870;78;21193;-56
2021/03/20 05:56:33;;;;;;;17.45;14.10;;;;;;;1.12;66.59;94516.11;1807975;79;21070;-56
2021/03/20 05:59:41;;;;;;;14.10;12.58;;;;;;;0.98;66.80;94517.50;1798283;79;21089;-56
2021/03/20 06:02:40;;;;;;;22.17;16.90;;;;;;;0.88;67.00;94518.32;1807859;79;21083;-57
2021/03/20 06:05:36;;;;;;;16.45;14.78;;;;;;;0.78;67.64;94517.75;1807952;78;21073;-56
2021/03/20 06:08:24;;;;;;;20.05;17.00;;;;;;;0.80;68.11;94519.48;1806883;79;21176;-56
2021/03/20 06:11:14;;;;;;;16.30;14.60;;;;;;;0.97;68.29;94515.95;1802949;79;21180;-58
2021/03/20 06:14:17;;;;;;;22.07;17.30;;;;;;;1.13;67.83;94524.42;1807849;79;21077;-57
2021/03/20 06:16:53;;;;;;;36.53;26.45;;;;;;;1.15;67.59;94527.51;1807861;79;21113;-56
2021/03/20 06:19:44;;;;;;;53.65;33.50;;;;;;;1.11;67.72;94524.05;1807644;79;21069;-56
2021/03/20 06:22:26;;;;;;;48.85;33.23;;;;;;;1.16;67.96;94531.00;1807984;79;22077;-57
2021/03/20 06:25:32;;;;;;;26.20;20.10;;;;;;;1.25;68.23;94534.05;1807750;79;21133;-55
2021/03/20 06:28:00;;;;;;;22.65;18.95;;;;;;;1.50;67.71;94536.84;1808977;79;21097;-56
2021/03/20 06:30:45;;;;;;;25.02;20.77;;;;;;;1.71;67.02;94538.09;1813083;78;21113;-56
2021/03/20 06:33:23;;;;;;;40.55;29.05;;;;;;;1.83;66.87;94539.00;1813519;77;21053;-57
2021/03/20 06:36:18;;;;;;;26.05;18.85;;;;;;;2.03;66.63;94538.68;1813565;79;21373;-56
2021/03/20 06:39:18;;;;;;;24.23;18.20;;;;;;;2.20;65.32;94536.43;1813571;79;21163;-55
2021/03/20 06:41:59;;;;;;;29.02;17.90;;;;;;;2.23;64.71;94539.70;1813510;79;21116;-57
2021/03/20 06:44:42;;;;;;;18.80;15.13;;;;;;;2.28;64.68;94533.84;1813538;78;21116;-56
2021/03/20 06:47:21;;;;;;;37.98;26.60;;;;;;;2.32;64.26;94533.25;1813550;79;21223;-58
2021/03/20 06:50:22;;;;;;;27.22;20.62;;;;;;;2.36;64.47;94533.39;1813514;79;21229;-58
2021/03/20 06:52:59;;;;;;;29.07;21.17;;;;;;;2.47;64.14;94540.11;1813420;79;21085;-57
2021/03/20 06:55:35;;;;;;;22.30;16.67;;;;;;;2.73;63.74;94538.13;1813502;79;21212;-55
2021/03/20 06:58:27;;;;;;;19.70;14.23;;;;;;;2.93;62.98;94537.16;1832499;77;22493;-55
2021/03/20 07:00:57;;;;;;;19.50;12.75;;;;;;;2.95;62.45;94543.53;1789521;79;21050;-56
2021/03/20 07:04:04;;;;;;;23.27;17.15;;;;;;;2.95;62.32;94547.61;1790726;78;21187;-57
2021/03/20 07:07:09;;;;;;;19.00;15.08;;;;;;;2.85;62.30;94548.50;1790686;78;21129;-56
2021/03/20 07:09:40;;;;;;;18.52;15.25;;;;;;;2.87;62.56;94549.63;1759796;79;21094;-56
2021/03/20 07:12:20;;;;;;;19.70;15.25;;;;;;;3.02;62.28;94554.35;1771014;80;21130;-55
2021/03/20 07:14:56;;;;;;;13.68;11.97;;;;;;;3.14;61.86;94555.18;1790777;79;21053;-56
2021/03/20 07:17:29;;;;;;;12.45;10.43;;;;;;;3.23;61.46;94565.00;1790740;78;21136;-57
2021/03/20 07:20:12;;;;;;;12.45;11.15;;;;;;;3.28;60.87;94561.83;1790830;80;21077;-59
2021/03/20 07:22:46;;;;;;;11.68;9.83;;;;;;;3.22;60.81;94560.73;1791191;79;21505;-57
2021/03/20 07:25:31;;;;;;;16.70;10.90;;;;;;;3.21;60.38;94566.75;1790366;79;21128;-56
2021/03/20 07:28:18;;;;;;;14.20;12.15;;;;;;;3.17;60.45;94563.88;1790776;79;21084;-56
2021/03/20 07:31:06;;;;;;;16.23;13.70;;;;;;;3.14;60.46;94567.41;1785687;79;21362;-56
2021/03/20 07:33:47;;;;;;;17.27;14.87;;;;;;;3.13;60.69;94569.94;1764307;80;21242;-56
2021/03/20 07:36:33;;;;;;;19.00;15.13;;;;;;;3.20;60.67;94569.89;1759536;81;21589;-56
2021/03/20 07:39:19;;;;;;;19.98;15.48;;;;;;;3.33;60.54;94573.61;1759381;81;21074;-56
2021/03/20 07:42:02;;;;;;;20.70;17.00;;;;;;;3.48;60.14;94579.08;1759479;80;21481;-59
2021/03/20 07:44:58;;;;;;;22.90;16.95;;;;;;;3.64;59.88;94578.10;1727151;82;22199;-57
2021/03/20 07:47:33;;;;;;;22.42;17.32;;;;;;;3.78;59.44;94580.66;1759365;80;21133;-57
2021/03/20 07:50:27;;;;;;;27.70;18.50;;;;;;;3.85;59.04;94573.76;1759562;80;21494;-57
2021/03/20 07:53:10;;;;;;;24.63;18.98;;;;;;;3.89;58.99;94577.20;1759432;81;21145;-57
2021/03/20 07:56:04;;;;;;;33.50;23.57;;;;;;;3.84;58.47;94587.19;1759648;80;21097;-59
2021/03/20 07:58:50;;;;;;;23.65;17.92;;;;;;;3.76;58.22;94580.88;1764916;80;21203;-57
2021/03/20 08:01:24;;;;;;;16.80;13.58;;;;;;;3.93;58.20;94582.60;1765082;80;21085;-56
2021/03/20 08:03:57;;;;;;;20.27;14.85;;;;;;;4.25;56.75;94586.43;1765082;81;21572;-56
2021/03/20 08:06:29;;;;;;;19.48;15.93;;;;;;;4.50;55.66;94581.98;1765217;81;21616;-57
2021/03/20 08:09:21;;;;;;;19.52;15.25;;;;;;;4.76;55.36;94592.11;1764702;81;21062;-57
2021/03/20 08:12:03;;;;;;;22.20;15.88;;;;;;;5.00;54.57;94590.31;1762704;80;21153;-56
2021/03/20 08:14:41;;;;;;;23.22;16.45;;;;;;;5.07;53.76;94590.79;1764460;80;21510;-57
2021/03/20 08:17:15;;;;;;;25.45;18.65;;;;;;;5.14;53.40;94592.80;1764519;81;21005;-57
2021/03/20 08:19:43;;;;;;;22.55;16.97;;;;;;;5.14;53.14;94595.53;1764644;80;21588;-58
2021/03/20 08:23:01;;;;;;;26.45;19.92;;;;;;;5.15;53.09;94598.43;1764546;81;21171;-57
2021/03/20 08:25:53;;;;;;;29.32;19.23;;;;;;;5.32;52.82;94596.77;1744516;81;21222;-59
2021/03/20 08:28:54;;;;;;;24.98;19.27;;;;;;;5.72;52.70;94605.17;1764456;80;21087;-57
2021/03/20 08:31:49;;;;;;;24.63;19.70;;;;;;;6.11;52.47;94603.05;1764488;81;21228;-56
2021/03/20 08:34:52;;;;;;;24.75;18.82;;;;;;;6.33;51.77;94605.52;1764490;81;21105;-58
2021/03/20 08:38:06;;;;;;;22.87;18.02;;;;;;;6.15;51.48;94609.22;1751842;81;21069;-58
2021/03/20 08:40:58;;;;;;;21.30;16.82;;;;;;;5.96;51.91;94601.81;1764684;81;21364;-56
2021/03/20 08:43:49;;;;;;;;;;;;;;;5.76;50.14;94603.75;1767061;81;21541;-57
2021/03/20 08:47:11;;;;;;;22.02;15.30;;;;;;;5.46;51.60;94600.59;1764559;80;20230;-57
2021/03/20 08:49:50;;;;;;;26.70;20.35;;;;;;;5.51;52.30;94607.53;1764543;80;21104;-56
2021/03/20 08:52:26;;;;;;;25.77;19.15;;;;;;;5.50;51.95;94605.98;1764542;80;21021;-61
2021/03/20 08:55:09;;;;;;;23.35;17.27;;;;;;;5.43;52.93;94612.34;1764536;81;21537;-60
2021/03/20 08:57:54;;;;;;;21.60;15.98;;;;;;;5.45;51.99;94606.48;1764450;80;21077;-57
2021/03/20 09:00:46;;;;;;;19.92;15.32;;;;;;;5.49;52.13;94605.81;1764473;81;21152;-57
2021/03/20 09:03:17;;;;;;;24.63;18.02;;;;;;;5.44;51.85;94611.76;1764502;81;21120;-60
2021/03/20 09:06:15;;;;;;;24.82;19.70;;;;;;;5.34;51.83;94616.22;1764617;81;21124;-57
2021/03/20 09:08:43;;;;;;;32.25;21.15;;;;;;;5.18;51.81;94613.95;1764533;80;23467;-56
2021/03/20 09:11:39;;;;;;;28.80;20.62;;;;;;;5.06;52.44;94621.39;1764434;81;21121;-57
2021/03/20 09:14:17;;;;;;;24.82;19.62;;;;;;;4.96;52.99;94627.77;1764486;81;21077;-58
2021/03/20 09:16:50;;;;;;;24.05;17.70;;;;;;;4.83;53.20;94624.07;1764445;80;21257;-58
2021/03/20 09:19:34;;;;;;;27.87;19.12;;;;;;;4.86;53.48;94623.85;1764508;80;21140;-57
2021/03/20 09:22:14;;;;;;;28.67;20.90;;;;;;;4.87;52.81;94628.11;1722456;81;21364;-57
2021/03/20 09:24:55;;;;;;;21.52;16.40;;;;;;;4.95;53.04;94630.31;1761275;81;21666;-58
2021/03/20 09:28:10;;;;;;;20.85;15.85;;;;;;;5.04;53.47;94634.66;1761791;81;21138;-56
2021/03/20 09:30:47;;;;;;;29.70;24.05;;;;;;;5.10;52.94;94630.27;1762491;81;21151;-57
2021/03/20 09:33:39;;;;;;;28.67;22.27;;;;;;;5.30;52.15;94627.79;1762181;80;21564;-56
2021/03/20 09:36:24;;;;;;;28.95;24.10;;;;;;;5.54;51.93;94632.60;1762560;81;21305;-59
2021/03/20 09:38:56;;;;;;;21.48;17.85;;;;;;;5.70;51.07;94639.52;1761994;81;21186;-57
2021/03/20 09:41:30;;;;;;;26.23;21.42;;;;;;;5.57;51.34;94639.37;1762794;81;21155;-59
2021/03/20 09:44:03;;;;;;;32.58;25.57;;;;;;;5.54;51.89;94640.78;1762519;81;21163;-56
2021/03/20 09:46:46;;;;;;;22.40;17.75;;;;;;;5.55;51.39;94641.75;1762671;80;21493;-57
2021/03/20 09:49:27;;;;;;;22.75;18.73;;;;;;;5.58;51.28;94648.34;1762625;81;21574;-57
2021/03/20 09:51:58;;;;;;;25.23;19.57;;;;;;;5.44;50.58;94647.98;1762573;81;21140;-57
2021/03/20 09:57:22;;;;;;;23.65;17.35;;;;;;;5.31;51.63;94646.27;1873331;75;22289;-57
2021/03/20 09:59:50;;;;;;;22.77;17.82;;;;;;;5.22;51.47;94644.69;1841282;77;21185;-56
2021/03/20 10:02:27;;;;;;;29.85;23.77;;;;;;;5.00;51.49;94646.19;1841311;78;21190;-57
2021/03/20 10:05:06;;;;;;;24.47;17.45;;;;;;;4.88;51.56;94646.79;1841297;77;21437;-60
2021/03/20 10:07:39;;;;;;;20.92;14.78;;;;;;;4.85;51.96;94650.34;1835349;77;21609;-58
2021/03/20 10:10:18;;;;;;;23.00;15.60;;;;;;;4.86;51.89;94649.16;1841390;77;21152;-57
2021/03/20 10:12:52;;;;;;;24.50;17.80;;;;;;;4.86;51.96;94659.28;1841328;78;21125;-58
2021/03/20 10:15:32;;;;;;;21.82;17.67;;;;;;;4.85;52.31;94655.80;1841191;77;21172;-57
2021/03/20 10:18:12;;;;;;;21.65;16.50;;;;;;;4.84;52.43;94649.38;1841313;77;21133;-57
2021/03/20 10:20:56;;;;;;;21.65;16.70;;;;;;;4.93;52.05;94655.09;1841326;77;21041;-58
2021/03/20 10:24:01;;;;;;;20.40;15.25;;;;;;;5.03;51.12;94661.75;1840769;77;21207;-58
2021/03/20 10:26:41;;;;;;;28.30;20.05;;;;;;;5.03;51.20;94660.38;1841241;77;21062;-57
2021/03/20 10:29:20;;;;;;;40.28;25.23;;;;;;;5.02;51.07;94659.42;1841436;77;21178;-61
2021/03/20 10:31:52;;;;;;;31.87;23.22;;;;;;;5.11;50.95;94663.77;1838377;78;21046;-60
2021/03/20 10:34:23;;;;;;;30.32;21.40;;;;;;;5.10;50.26;94664.92;1808603;79;21077;-57
2021/03/20 10:37:07;;;;;;;46.48;25.72;;;;;;;5.05;50.15;94667.55;1808451;79;21164;-56
2021/03/20 10:39:38;;;;;;;26.05;18.17;;;;;;;4.99;50.52;94668.43;1808455;79;21169;-58
2021/03/20 10:42:29;;;;;;;23.02;17.55;;;;;;;4.98;49.91;94665.52;1808460;78;21194;-57
2021/03/20 10:44:59;;;;;;;22.00;17.10;;;;;;;4.93;49.79;94674.94;1808494;79;21505;-56
2021/03/20 10:47:33;;;;;;;21.45;16.90;;;;;;;4.83;49.66;94671.01;1808477;79;21073;-59
2021/03/20 10:50:34;;;;;;;24.15;17.98;;;;;;;4.76;49.86;94680.05;1808540;79;21049;-58
2021/03/20 10:53:06;;;;;;;28.30;21.80;;;;;;;4.66;49.96;94675.55;1808558;78;21579;-58
2021/03/20 10:55:43;;;;;;;26.62;19.07;;;;;;;4.53;49.87;94675.91;1808254;78;21189;-58
2021/03/20 10:58:15;;;;;;;27.67;19.70;;;;;;;4.34;50.53;94675.20;1808418;79;21152;-60
2021/03/20 11:00:48;;;;;;;29.92;20.85;;;;;;;4.08;50.40;94684.67;1808585;78;21121;-60
2021/03/20 11:03:39;;;;;;;25.72;20.30;;;;;;;3.85;51.59;94677.14;1808509;78;21058;-58
2021/03/20 11:06:14;;;;;;;29.15;21.00;;;;;;;3.78;51.98;94684.04;1808613;78;21057;-57
2021/03/20 11:08:46;;;;;;;21.73;16.45;;;;;;;3.72;52.91;94684.88;1807875;79;21358;-57
2021/03/20 11:11:22;;;;;;;27.90;20.20;;;;;;;3.74;52.74;94699.63;1807788;78;21132;-58
2021/03/20 11:13:52;;;;;;;25.15;17.52;;;;;;;3.71;54.27;94693.61;1807840;79;21222;-57
2021/03/20 11:16:23;;;;;;;21.35;15.58;;;;;;;3.76;54.70;94693.20;1807854;79;21069;-57
2021/03/20 11:19:10;;;;;;;31.62;21.52;;;;;;;3.77;53.84;94687.16;1808028;79;21145;-59
2021/03/20 11:21:41;;;;;;;32.40;22.27;;;;;;;3.70;54.80;94682.55;1801737;79;21490;-57
2021/03/20 11:24:23;;;;;;;39.18;27.42;;;;;;;3.83;54.52;94684.95;1807914;78;21628;-59
2021/03/20 11:26:52;;;;;;;39.00;25.80;;;;;;;3.94;55.00;94688.91;1793148;79;21153;-58
2021/03/20 11:29:25;;;;;;;41.68;28.50;;;;;;;3.97;55.95;94684.80;1807951;79;21069;-57
2021/03/20 11:32:06;;;;;;;37.33;26.87;;;;;;;3.87;56.21;94685.67;1808122;78;21176;-58
2021/03/20 11:34:41;;;;;;;36.30;26.42;;;;;;;3.74;56.80;94687.39;1807817;78;21328;-57
2021/03/20 11:37:24;;;;;;;37.13;24.35;;;;;;;3.75;56.78;94696.30;1778926;79;21061;-58
2021/03/20 11:39:55;;;;;;;34.40;24.27;;;;;;;3.78;56.60;94692.20;1807991;79;21133;-57
2021/03/20 11:42:27;;;;;;;36.68;27.67;;;;;;;3.53;57.25;94691.66;1807832;79;21109;-58
2021/03/20 11:44:56;;;;;;;31.00;22.82;;;;;;;3.45;58.11;94692.73;1807976;78;21116;-57
2021/03/20 11:47:30;;;;;;;31.17;23.47;;;;;;;3.52;57.98;94684.68;1806604;78;21192;-58
2021/03/20 11:50:00;;;;;;;31.05;22.77;;;;;;;3.54;57.72;94679.60;1807991;79;21065;-56
2021/03/20 11:52:32;;;;;;;37.08;25.43;;;;;;;3.65;57.37;94683.60;1807909;78;21078;-58
2021/03/20 11:55:07;;;;;;;34.25;24.70;;;;;;;3.78;57.19;94677.23;1807876;79;21069;-58
2021/03/20 11:57:38;;;;;;;38.95;27.13;;;;;;;3.96;56.86;94677.81;1807584;79;21149;-57
2021/03/20 12:00:32;;;;;;;35.92;24.82;;;;;;;4.11;56.43;94684.64;1807954;79;22230;-57
2021/03/20 12:03:04;;;;;;;26.48;19.65;;;;;;;4.09;55.66;94681.52;1807871;79;21085;-58
2021/03/20 12:05:36;;;;;;;23.43;17.67;;;;;;;4.01;55.32;94684.73;1808019;79;21121;-57
2021/03/20 12:08:49;;;;;;;25.15;18.73;;;;;;;3.85;54.78;94683.95;1807842;79;21621;-58
2021/03/20 12:11:19;;;;;;;40.98;27.27;;;;;;;3.71;54.92;94690.89;1807762;79;21474;-58
2021/03/20 12:13:53;;;;;;;47.85;29.37;;;;;;;3.62;56.84;94685.17;1807831;78;21435;-57
2021/03/20 12:16:34;;;;;;;43.83;29.60;;;;;;;3.64;57.45;94690.98;1807729;79;21153;-59
2021/03/20 12:19:06;;;;;;;52.98;33.83;;;;;;;3.58;58.26;94689.88;1807773;79;21140;-58
2021/03/20 12:22:04;;;;;;;46.73;29.45;;;;;;;3.48;59.08;94689.20;1807847;78;21489;-57
2021/03/20 12:24:45;;;;;;;77.27;38.60;;;;;;;3.50;58.92;94682.95;1807768;79;21141;-57
2021/03/20 12:27:34;;;;;;;94.30;43.75;;;;;;;3.41;59.55;94687.92;1807826;79;21192;-56
2021/03/20 12:30:27;;;;;;;70.42;38.10;;;;;;;3.29;59.81;94688.41;1807774;79;21147;-57
2021/03/20 12:33:18;;;;;;;45.70;27.55;;;;;;;3.28;60.45;94688.23;1807678;78;21165;-57